Time;durP1;ratioP1;P1;durP2;ratioP2;P2;SDS_P1;SDS_P2;PMS_P1;PMS_P2;Temp;Humidity;BMP_temperature;BMP_pressure;BME280_temperature;BME280_humidity;BME280_pressure;Samples;Min_cycle;Max_cycle;Signal;HPM_P1;HPM_P2
2021/12/23 00:04:57;;;;;;;60.13;25.47;;;;;;;-2.24;100.00;101590.84;10541104;28;20227;-65
2021/12/23 00:10:06;;;;;;;54.30;23.30;;;;;;;-2.26;100.00;101582.25;10542593;28;20209;-66
2021/12/23 00:15:23;;;;;;;60.17;25.17;;;;;;;-2.20;100.00;101572.47;10542768;28;20207;-66
2021/12/23 00:25:52;;;;;;;54.93;23.27;;;;;;;-2.15;100.00;101554.94;10542493;28;20549;-65
2021/12/23 00:30:59;;;;;;;51.20;22.33;;;;;;;-2.20;100.00;101554.66;10542060;28;20668;-65
2021/12/23 00:36:05;;;;;;;45.47;23.70;;;;;;;-2.37;100.00;101553.69;10541388;28;20208;-63
2021/12/23 00:41:09;;;;;;;53.73;23.17;;;;;;;-2.35;100.00;101557.16;10539337;28;20223;-69
2021/12/23 00:46:13;;;;;;;52.10;22.97;;;;;;;-2.37;100.00;101551.13;10539029;28;20225;-67
2021/12/23 00:51:16;;;;;;;49.50;24.47;;;;;;;-2.38;100.00;101545.94;10538859;28;20233;-66
2021/12/23 00:56:20;;;;;;;55.50;24.47;;;;;;;-2.36;100.00;101540.16;10539094;28;20560;-68
2021/12/23 01:01:24;;;;;;;50.47;24.03;;;;;;;-2.30;100.00;101533.69;10538742;28;20222;-66
2021/12/23 01:06:28;;;;;;;53.97;25.20;;;;;;;-2.36;100.00;101537.63;10540404;28;20239;-66
2021/12/23 01:11:31;;;;;;;50.57;23.93;;;;;;;-2.34;100.00;101527.56;10546298;28;20301;-68
2021/12/23 01:16:49;;;;;;;51.33;22.37;;;;;;;-2.26;100.00;101521.25;10546116;28;20215;-67
2021/12/23 01:21:53;;;;;;;45.73;21.67;;;;;;;-2.21;100.00;101513.91;10547676;28;20229;-65
2021/12/23 01:26:56;;;;;;;53.37;22.70;;;;;;;-2.22;100.00;101504.50;10549180;28;20298;-68
2021/12/23 01:32:04;;;;;;;46.67;22.60;;;;;;;-2.25;100.00;101501.81;10548599;28;20545;-67
2021/12/23 01:37:07;;;;;;;44.07;21.87;;;;;;;-2.27;100.00;101506.78;10548540;28;20223;-65
2021/12/23 01:42:10;;;;;;;44.70;21.50;;;;;;;-2.23;100.00;101495.16;10548155;28;20657;-64
2021/12/23 01:47:15;;;;;;;42.97;18.53;;;;;;;-2.18;100.00;101487.00;10548184;28;20224;-63
2021/12/23 01:52:18;;;;;;;45.57;19.70;;;;;;;-2.11;100.00;101486.56;10547680;28;20220;-68
2021/12/23 01:57:22;;;;;;;44.50;19.20;;;;;;;-2.06;100.00;101475.00;10547689;28;20310;-66
2021/12/23 02:02:27;;;;;;;41.43;19.03;;;;;;;-2.13;100.00;101464.38;10547555;28;20221;-67
2021/12/23 02:07:31;;;;;;;42.87;19.33;;;;;;;-2.15;100.00;101454.13;10547011;28;20602;-68
2021/12/23 02:12:34;;;;;;;40.10;18.70;;;;;;;-2.22;100.00;101446.94;10546818;28;20203;-66
2021/12/23 02:17:39;;;;;;;36.50;16.47;;;;;;;-2.24;100.00;101442.56;10546044;28;20260;-67
2021/12/23 02:22:44;;;;;;;34.70;17.37;;;;;;;-2.19;100.00;101431.00;10546389;28;20226;-65
2021/12/23 02:27:51;;;;;;;37.93;17.50;;;;;;;-2.21;100.00;101430.03;10546630;28;20195;-63
2021/12/23 02:32:56;;;;;;;44.97;19.60;;;;;;;-2.23;100.00;101429.06;10546392;28;20287;-64
2021/12/23 02:38:00;;;;;;;43.40;18.97;;;;;;;-2.27;100.00;101420.38;10546129;28;20197;-64
2021/12/23 02:43:16;;;;;;;39.50;19.27;;;;;;;-2.35;100.00;101409.75;10545656;28;20226;-67
2021/12/23 02:48:21;;;;;;;42.43;20.03;;;;;;;-2.41;100.00;101403.44;10545391;28;20504;-64
2021/12/23 02:53:26;;;;;;;42.00;19.00;;;;;;;-2.40;100.00;101395.91;10545290;28;20278;-65
2021/12/23 02:58:29;;;;;;;41.83;19.10;;;;;;;-2.49;100.00;101387.78;10545293;28;20625;-66
2021/12/23 03:03:33;;;;;;;36.27;17.77;;;;;;;-2.42;100.00;101382.22;10544825;28;20227;-63
2021/12/23 03:08:39;;;;;;;37.10;17.40;;;;;;;-2.43;100.00;101383.03;10544750;28;20188;-64
2021/12/23 03:13:43;;;;;;;35.97;17.13;;;;;;;-2.50;100.00;101386.00;10544740;28;20198;-63
2021/12/23 03:18:47;;;;;;;41.77;18.80;;;;;;;-2.52;100.00;101374.03;10544259;28;20222;-66
2021/12/23 03:23:52;;;;;;;33.13;16.87;;;;;;;-2.46;100.00;101372.69;10544373;28;20200;-66
2021/12/23 03:28:55;;;;;;;33.10;15.90;;;;;;;-2.46;100.00;101359.13;10543606;28;20192;-65
2021/12/23 03:33:58;;;;;;;38.97;16.77;;;;;;;-2.52;100.00;101348.63;10543565;28;20195;-67
2021/12/23 03:39:03;;;;;;;38.63;18.13;;;;;;;-2.57;100.00;101348.31;10543735;28;20198;-68
2021/12/23 03:44:07;;;;;;;37.43;17.40;;;;;;;-2.63;100.00;101340.38;10544001;28;20211;-64
2021/12/23 03:49:11;;;;;;;37.93;16.27;;;;;;;-2.69;100.00;101342.53;10543317;28;20192;-67
2021/12/23 03:54:15;;;;;;;34.53;16.87;;;;;;;-2.65;100.00;101335.97;10543016;28;20195;-70
2021/12/23 03:59:18;;;;;;;34.97;16.40;;;;;;;-2.80;100.00;101330.91;10542869;28;20227;-64
2021/12/23 04:04:22;;;;;;;41.07;17.13;;;;;;;-2.73;100.00;101311.81;10542671;28;20220;-69
2021/12/23 04:09:26;;;;;;;42.33;17.40;;;;;;;-2.76;100.00;101306.56;10542754;28;20200;-63
2021/12/23 04:14:29;;;;;;;36.93;16.43;;;;;;;-2.73;100.00;101294.91;10542719;28;20201;-70
2021/12/23 04:19:33;;;;;;;36.77;17.70;;;;;;;-2.80;100.00;101289.38;10542549;28;20214;-66
2021/12/23 04:24:37;;;;;;;39.23;15.93;;;;;;;-2.77;100.00;101279.41;10542695;28;20187;-63
2021/12/23 04:29:41;;;;;;;41.70;17.13;;;;;;;-2.75;100.00;101276.16;10542294;28;20543;-64
2021/12/23 04:34:44;;;;;;;41.10;17.83;;;;;;;-2.76;100.00;101266.78;10540644;28;20191;-63
2021/12/23 04:39:48;;;;;;;34.13;15.60;;;;;;;-2.75;100.00;101253.31;10531930;28;20225;-67
2021/12/23 04:44:52;;;;;;;36.10;18.07;;;;;;;-2.70;100.00;101251.03;10546992;28;20191;-66
2021/12/23 04:49:55;;;;;;;38.00;17.43;;;;;;;-2.77;100.00;101234.56;10547159;28;20360;-65
2021/12/23 04:55:00;;;;;;;38.57;17.50;;;;;;;-2.77;100.00;101223.53;10547062;28;20202;-65
2021/12/23 05:00:06;;;;;;;37.40;16.50;;;;;;;-2.82;100.00;101223.28;10546653;28;21649;-70
2021/12/23 05:05:10;;;;;;;37.33;16.83;;;;;;;-2.84;100.00;101222.31;10546959;28;20236;-68
2021/12/23 05:10:16;;;;;;;74.67;34.50;;;;;;;-2.84;100.00;101207.06;10546058;28;20247;-63
2021/12/23 05:15:21;;;;;;;37.03;17.53;;;;;;;-2.85;100.00;101197.72;10546364;28;20225;-65
2021/12/23 05:20:25;;;;;;;39.67;17.87;;;;;;;-2.88;100.00;101194.97;10545488;28;20233;-64
2021/12/23 05:25:29;;;;;;;40.83;17.87;;;;;;;-2.81;100.00;101186.03;10545524;28;20230;-68
2021/12/23 05:30:33;;;;;;;39.70;18.50;;;;;;;-2.81;100.00;101181.84;10545489;28;20237;-64
2021/12/23 05:35:36;;;;;;;39.50;17.70;;;;;;;-2.76;100.00;101182.13;10545516;28;20227;-63
2021/12/23 05:40:41;;;;;;;39.10;18.00;;;;;;;-2.71;100.00;101161.25;10225893;27;10000140;-65
2021/12/23 05:45:44;;;;;;;32.80;15.87;;;;;;;-2.74;100.00;101162.72;10545312;28;20247;-65
2021/12/23 05:50:47;;;;;;;33.33;17.23;;;;;;;-2.67;100.00;101157.19;10544165;28;20219;-66
2021/12/23 05:55:54;;;;;;;39.90;18.23;;;;;;;-2.65;100.00;101153.09;10543362;28;20229;-67
2021/12/23 06:00:58;;;;;;;41.67;19.57;;;;;;;-2.63;100.00;101146.44;10544030;28;20664;-65
2021/12/23 06:06:01;;;;;;;36.17;17.90;;;;;;;-2.68;100.00;101152.94;10543932;28;20534;-68
2021/12/23 06:11:06;;;;;;;35.13;17.73;;;;;;;-2.72;100.00;101163.69;10543438;28;20223;-70
2021/12/23 06:16:09;;;;;;;44.67;19.67;;;;;;;-2.66;100.00;101152.19;10544091;28;20231;-68
2021/12/23 06:21:13;;;;;;;37.50;18.10;;;;;;;-2.73;100.00;101147.59;10543174;28;20237;-68
2021/12/23 06:26:17;;;;;;;45.53;19.23;;;;;;;-2.75;100.00;101133.94;10543421;28;20209;-67
2021/12/23 06:31:21;;;;;;;34.57;16.93;;;;;;;-2.73;100.00;101134.91;10542758;28;20215;-67
2021/12/23 06:36:24;;;;;;;41.40;17.17;;;;;;;-2.75;100.00;101141.56;10543461;28;20226;-74
2021/12/23 06:41:29;;;;;;;41.47;18.87;;;;;;;-2.81;100.00;101133.59;10583210;28;20279;-67
2021/12/23 06:46:32;;;;;;;37.40;18.33;;;;;;;-2.78;100.00;101131.22;10542370;28;20212;-62
2021/12/23 06:51:35;;;;;;;36.07;16.97;;;;;;;-2.77;100.00;101125.38;10541734;28;20218;-66
2021/12/23 06:56:40;;;;;;;39.00;18.20;;;;;;;-2.75;100.00;101116.16;10542269;28;20302;-70
2021/12/23 07:01:47;;;;;;;36.30;16.90;;;;;;;-2.72;100.00;101129.03;10541172;28;20231;-63
2021/12/23 07:06:58;;;;;;;42.13;17.40;;;;;;;-2.66;100.00;101121.72;10541241;28;20571;-68
2021/12/23 07:12:04;;;;;;;41.27;17.60;;;;;;;-2.80;100.00;101115.06;10541273;28;20372;-64
2021/12/23 07:17:07;;;;;;;34.70;15.87;;;;;;;-2.67;100.00;101120.00;10541198;28;20286;-70
2021/12/23 07:22:11;;;;;;;31.97;16.47;;;;;;;-2.66;100.00;101105.63;10540883;28;20231;-67
2021/12/23 07:27:16;;;;;;;33.13;15.67;;;;;;;-2.59;100.00;101095.88;10540608;28;20227;-65
2021/12/23 07:32:19;;;;;;;55.43;23.97;;;;;;;-2.56;100.00;101088.44;10539987;28;20690;-66
2021/12/23 07:37:23;;;;;;;31.30;16.47;;;;;;;-2.56;100.00;101085.88;10540593;28;20218;-66
2021/12/23 07:42:30;;;;;;;36.27;18.00;;;;;;;-2.51;100.00;101088.66;10539766;28;20309;-68
2021/12/23 07:47:35;;;;;;;42.03;19.03;;;;;;;-2.55;100.00;101068.97;10539832;28;20237;-69
2021/12/23 07:52:38;;;;;;;35.43;16.73;;;;;;;-2.55;100.00;101072.38;10539599;28;20219;-69
2021/12/23 07:57:43;;;;;;;40.67;17.17;;;;;;;-2.52;100.00;101066.59;10539888;28;20233;-66
2021/12/23 08:02:46;;;;;;;39.80;17.47;;;;;;;-2.53;100.00;101052.13;10539375;28;20534;-64
2021/12/23 08:07:50;;;;;;;40.37;17.87;;;;;;;-2.49;100.00;101047.31;10539428;28;20245;-63
2021/12/23 08:12:54;;;;;;;43.80;16.67;;;;;;;-2.49;100.00;101039.69;10539006;28;20226;-71
2021/12/23 08:17:57;;;;;;;39.30;16.87;;;;;;;-2.52;100.00;101034.44;10538912;28;20273;-66
2021/12/23 08:23:01;;;;;;;33.03;17.07;;;;;;;-2.46;100.00;101027.13;10538647;28;20223;-65
2021/12/23 08:28:06;;;;;;;32.80;16.17;;;;;;;-2.46;100.00;101027.13;10538824;28;20298;-65
2021/12/23 08:33:10;;;;;;;38.90;17.63;;;;;;;-2.38;100.00;101017.34;10538728;28;20238;-64
2021/12/23 08:38:13;;;;;;;35.77;16.80;;;;;;;-2.26;100.00;101002.72;10538394;28;20557;-70
2021/12/23 08:43:18;;;;;;;38.47;17.57;;;;;;;-2.16;100.00;101006.63;10538119;28;20219;-71
2021/12/23 08:48:21;;;;;;;37.70;17.77;;;;;;;-2.16;100.00;100991.38;10538741;28;20237;-68
2021/12/23 08:53:24;;;;;;;35.23;17.23;;;;;;;-2.15;100.00;100988.91;10538301;28;20215;-67
2021/12/23 08:58:29;;;;;;;37.13;17.47;;;;;;;-2.11;100.00;100975.56;10496615;28;20234;-69
2021/12/23 09:03:33;;;;;;;39.43;16.90;;;;;;;-2.12;100.00;100962.78;10496734;28;20236;-65
2021/12/23 09:08:36;;;;;;;42.10;19.13;;;;;;;-2.03;100.00;100961.53;10496264;28;20226;-68
2021/12/23 09:13:41;;;;;;;35.40;16.77;;;;;;;-1.93;100.00;100962.88;10497015;28;20248;-68
2021/12/23 09:18:45;;;;;;;39.20;17.33;;;;;;;-1.88;100.00;100959.75;10496032;28;20218;-68
2021/12/23 09:23:48;;;;;;;40.10;18.67;;;;;;;-1.80;100.00;100945.75;10495971;28;20243;-65
2021/12/23 09:28:59;;;;;;;40.67;17.13;;;;;;;-1.77;100.00;100934.84;10541626;28;20234;-64
2021/12/23 09:34:02;;;;;;;38.30;17.60;;;;;;;-1.73;100.00;100921.47;10545004;28;20227;-67
2021/12/23 09:39:09;;;;;;;39.07;16.57;;;;;;;-1.71;100.00;100914.78;10549318;28;20676;-67
2021/12/23 09:44:15;;;;;;;37.93;17.27;;;;;;;-1.58;100.00;100906.91;10585272;28;20305;-64
2021/12/23 09:49:19;;;;;;;40.23;17.70;;;;;;;-1.55;100.00;100896.88;10544599;28;20224;-67
2021/12/23 09:54:26;;;;;;;36.50;17.90;;;;;;;-1.50;100.00;100890.34;10544257;28;20667;-65
2021/12/23 09:59:31;;;;;;;38.40;16.97;;;;;;;-1.39;100.00;100892.56;10544310;28;20218;-69
2021/12/23 10:04:34;;;;;;;36.47;16.20;;;;;;;-1.38;100.00;100894.31;10543518;28;20718;-70
2021/12/23 10:09:45;;;;;;;34.27;16.87;;;;;;;-1.23;100.00;100878.88;10544403;28;20222;-65
2021/12/23 10:31:07;;;;;;;42.83;20.53;;;;;;;-0.82;100.00;100833.16;10546319;28;20216;-73
2021/12/23 10:41:34;;;;;;;36.53;17.57;;;;;;;-0.62;100.00;100809.38;10545596;28;20276;-71
2021/12/23 10:46:41;;;;;;;38.67;18.00;;;;;;;-0.66;100.00;100797.31;10545214;28;20660;-64
2021/12/23 10:52:08;;;;;;;40.50;16.63;;;;;;;-0.61;100.00;100787.31;10545380;28;20223;-64
2021/12/23 11:03:09;;;;;;;37.70;18.13;;;;;;;-0.43;100.00;100758.31;10544650;28;20255;-64
2021/12/23 11:08:25;;;;;;;36.53;17.67;;;;;;;-0.22;100.00;100733.69;10543523;28;20607;-68
2021/12/23 11:40:52;;;;;;;35.70;17.37;;;;;;;0.03;100.00;100641.94;10543408;28;20219;-70
2021/12/23 11:45:56;;;;;;;34.30;16.63;;;;;;;0.01;100.00;100637.63;10543186;28;20226;-67
2021/12/23 11:51:08;;;;;;;32.17;15.90;;;;;;;-0.05;100.00;100627.19;10542092;28;20216;-63
2021/12/23 11:56:18;;;;;;;37.00;16.73;;;;;;;-0.05;100.00;100607.66;10346434;27;10001366;-70
2021/12/23 12:01:24;;;;;;;36.70;15.67;;;;;;;-0.08;100.00;100587.16;10539501;28;20467;-65
2021/12/23 12:06:32;;;;;;;34.37;17.33;;;;;;;-0.08;100.00;100579.50;10538977;28;20231;-66
2021/12/23 12:11:35;;;;;;;36.43;17.70;;;;;;;-0.12;100.00;100564.88;10539284;28;20183;-66
2021/12/23 12:16:38;;;;;;;38.43;15.87;;;;;;;-0.21;100.00;100554.34;10539043;28;20192;-65
2021/12/23 12:21:43;;;;;;;30.13;15.73;;;;;;;-0.23;100.00;100540.72;10539355;28;20669;-67
2021/12/23 12:26:55;;;;;;;39.63;19.37;;;;;;;-0.16;100.00;100532.47;10538622;28;20215;-67
2021/12/23 12:32:02;;;;;;;40.83;17.73;;;;;;;-0.22;100.00;100528.81;10538889;28;20230;-66
2021/12/23 12:37:07;;;;;;;35.50;16.10;;;;;;;-0.18;100.00;100521.34;10538290;28;20636;-68
2021/12/23 12:42:29;;;;;;;36.70;16.27;;;;;;;-0.18;100.00;100512.81;10539210;28;20215;-67
2021/12/23 12:47:37;;;;;;;37.73;17.23;;;;;;;-0.22;100.00;100504.19;10538211;28;20295;-68
2021/12/23 12:52:44;;;;;;;30.93;15.70;;;;;;;-0.23;100.00;100494.81;10538639;28;20186;-65
2021/12/23 12:57:50;;;;;;;35.60;17.37;;;;;;;-0.22;100.00;100491.44;10538098;28;20196;-65
2021/12/23 13:02:57;;;;;;;33.13;15.93;;;;;;;-0.26;100.00;100479.38;10543042;28;20664;-63
2021/12/23 13:08:14;;;;;;;32.00;16.27;;;;;;;-0.29;100.00;100483.50;10549424;28;20215;-65
2021/12/23 13:13:31;;;;;;;30.83;15.67;;;;;;;-0.30;100.00;100472.47;10549129;28;20617;-68
2021/12/23 13:18:34;;;;;;;31.97;15.07;;;;;;;-0.29;100.00;100465.66;10548854;28;20562;-68
2021/12/23 13:23:43;;;;;;;36.63;16.43;;;;;;;-0.28;100.00;100455.53;10548716;28;20211;-67
2021/12/23 13:28:50;;;;;;;31.40;15.97;;;;;;;-0.30;100.00;100456.28;10548627;28;20187;-64
2021/12/23 13:33:55;;;;;;;36.60;16.73;;;;;;;-0.37;100.00;100459.44;10548709;28;20202;-66
2021/12/23 13:39:08;;;;;;;32.97;16.73;;;;;;;-0.39;100.00;100443.22;10548132;28;20555;-68
2021/12/23 13:44:23;;;;;;;33.73;15.50;;;;;;;-0.42;100.00;100428.72;10548294;28;20233;-63
2021/12/23 13:49:35;;;;;;;40.43;15.70;;;;;;;-0.45;100.00;100418.38;10545290;28;20197;-69
2021/12/23 13:54:42;;;;;;;31.73;16.20;;;;;;;-0.50;100.00;100413.97;10544923;28;20283;-67
2021/12/23 13:59:46;;;;;;;32.93;16.60;;;;;;;-0.57;100.00;100410.31;10544501;28;20194;-66
2021/12/23 14:04:52;;;;;;;32.03;16.57;;;;;;;-0.60;100.00;100394.94;10543726;28;20227;-65
2021/12/23 14:09:59;;;;;;;34.43;16.50;;;;;;;-0.59;100.00;100394.13;10543785;28;20191;-68
2021/12/23 14:15:07;;;;;;;34.97;17.03;;;;;;;-0.58;100.00;100384.78;10542923;28;20175;-66
2021/12/23 14:25:37;;;;;;;34.23;16.77;;;;;;;-0.62;100.00;100370.22;10543452;28;20660;-67
2021/12/23 14:30:49;;;;;;;33.37;17.47;;;;;;;-0.64;100.00;100374.41;10543097;28;20803;-66
2021/12/23 14:36:00;;;;;;;36.77;16.30;;;;;;;-0.63;100.00;100363.38;10543294;28;20233;-69
2021/12/23 14:41:09;;;;;;;38.00;17.23;;;;;;;-0.63;100.00;100353.19;10542782;28;20182;-65
2021/12/23 14:46:13;;;;;;;50.03;20.93;;;;;;;-0.50;100.00;100345.16;10542430;28;20221;-66
2021/12/23 14:51:22;;;;;;;41.13;18.07;;;;;;;-0.57;100.00;100338.13;10542218;28;20195;-64
2021/12/23 14:56:27;;;;;;;44.07;18.13;;;;;;;-0.68;100.00;100319.91;10541793;28;20583;-68
2021/12/23 15:01:30;;;;;;;34.67;17.10;;;;;;;-0.70;100.00;100313.91;10542028;28;20214;-68
2021/12/23 15:06:33;;;;;;;35.93;16.93;;;;;;;-0.75;100.00;100310.34;10541782;28;20227;-70
2021/12/23 15:11:38;;;;;;;38.97;16.53;;;;;;;-0.72;100.00;100287.50;10541134;28;20201;-70
2021/12/23 15:16:41;;;;;;;37.77;17.90;;;;;;;-0.75;100.00;100292.50;10541468;28;20274;-65
2021/12/23 15:21:49;;;;;;;41.50;18.40;;;;;;;-0.69;100.00;100295.25;10540666;28;20214;-63
2021/12/23 15:26:56;;;;;;;36.40;17.77;;;;;;;-0.74;100.00;100273.00;10540596;28;20215;-72
2021/12/23 15:32:04;;;;;;;39.67;17.57;;;;;;;-0.78;100.00;100261.84;10540757;28;20188;-68
2021/12/23 15:37:07;;;;;;;37.00;17.27;;;;;;;-0.83;100.00;100250.63;10540607;28;20259;-64
2021/12/23 15:42:13;;;;;;;37.73;17.50;;;;;;;-0.86;100.00;100247.13;10540248;28;20571;-64
2021/12/23 15:47:19;;;;;;;39.03;17.90;;;;;;;-0.90;100.00;100228.31;10540474;28;20212;-72
2021/12/23 15:52:23;;;;;;;42.47;19.40;;;;;;;-0.92;100.00;100227.41;10539836;28;20215;-68
2021/12/23 15:57:27;;;;;;;42.70;19.40;;;;;;;-0.98;100.00;100214.44;10540162;28;20214;-67
2021/12/23 16:02:32;;;;;;;43.27;18.50;;;;;;;-0.97;100.00;100200.06;10539808;28;20211;-66
2021/12/23 16:07:38;;;;;;;42.03;18.57;;;;;;;-1.03;100.00;100187.97;10540029;28;20233;-68
2021/12/23 16:12:43;;;;;;;37.57;18.33;;;;;;;-0.98;100.00;100190.69;10542637;28;20191;-69
2021/12/23 16:17:47;;;;;;;41.73;18.67;;;;;;;-1.01;100.00;100177.84;10542441;28;20643;-69
2021/12/23 16:22:51;;;;;;;40.83;19.40;;;;;;;-1.06;100.00;100156.47;10542471;28;20515;-68
2021/12/23 16:27:56;;;;;;;40.03;18.30;;;;;;;-1.00;100.00;100157.50;10542224;28;20215;-63
2021/12/23 16:33:01;;;;;;;37.03;18.07;;;;;;;-1.07;100.00;100139.47;10542216;28;20219;-64
2021/12/23 16:38:05;;;;;;;91.30;39.30;;;;;;;-1.11;100.00;100133.41;10545506;28;20215;-70
2021/12/23 16:43:10;;;;;;;40.03;18.07;;;;;;;-1.10;100.00;100139.38;10550338;28;20211;-63
2021/12/23 16:48:15;;;;;;;35.70;16.40;;;;;;;-1.06;100.00;100131.88;10550725;28;20191;-66
2021/12/23 16:53:19;;;;;;;39.30;17.83;;;;;;;-1.13;100.00;100118.88;10550398;28;20313;-63
2021/12/23 16:58:24;;;;;;;37.60;17.63;;;;;;;-1.19;100.00;100111.91;10550405;28;20614;-66
2021/12/23 17:03:28;;;;;;;35.43;17.43;;;;;;;-1.22;100.00;100104.19;10549585;28;20231;-69
2021/12/23 17:08:31;;;;;;;39.10;18.43;;;;;;;-1.23;100.00;100094.81;10547036;28;20219;-73
2021/12/23 17:13:36;;;;;;;37.03;18.00;;;;;;;-1.21;100.00;100095.75;10546266;28;20223;-63
2021/12/23 17:18:53;;;;;;;39.37;19.73;;;;;;;-1.28;100.00;100086.19;10546090;28;20211;-66
2021/12/23 17:23:56;;;;;;;35.77;17.80;;;;;;;-1.33;100.00;100075.00;10546092;28;20237;-65
2021/12/23 17:29:01;;;;;;;38.63;18.90;;;;;;;-1.41;100.00;100068.78;10546083;28;20340;-63
2021/12/23 17:34:07;;;;;;;42.07;19.73;;;;;;;-1.31;100.00;100060.59;10545514;28;20219;-67
2021/12/23 17:39:12;;;;;;;45.33;19.30;;;;;;;-1.31;100.00;100040.25;10545495;28;20219;-65
2021/12/23 17:44:17;;;;;;;36.03;18.20;;;;;;;-1.40;100.00;100022.16;10545306;28;20224;-64
2021/12/23 17:49:20;;;;;;;46.77;21.53;;;;;;;-1.40;100.00;100004.38;10543693;28;20223;-65
2021/12/23 17:54:26;;;;;;;43.67;18.80;;;;;;;-1.39;100.00;99995.91;10545108;28;20219;-63
2021/12/23 17:59:30;;;;;;;39.83;19.17;;;;;;;-1.46;100.00;99986.34;10544826;28;20565;-65
2021/12/23 18:04:33;;;;;;;43.87;20.07;;;;;;;-1.48;100.00;99982.88;10544342;28;20670;-71
2021/12/23 18:09:36;;;;;;;43.97;21.10;;;;;;;-1.39;100.00;99957.72;10544319;28;20226;-68
2021/12/23 18:14:43;;;;;;;39.93;20.37;;;;;;;-1.50;100.00;99938.75;10544364;28;20234;-69
2021/12/23 18:19:48;;;;;;;70.00;34.53;;;;;;;-1.38;100.00;99931.47;10579335;28;20241;-76
2021/12/23 18:24:51;;;;;;;40.67;20.27;;;;;;;-1.43;100.00;99925.38;10585583;28;20223;-66
2021/12/23 18:29:58;;;;;;;42.15;22.15;;;;;;;-1.48;100.00;99919.28;10584800;28;20444;-67
2021/12/23 18:35:01;;;;;;;38.70;19.53;;;;;;;-1.50;100.00;99913.31;10586177;28;20214;-68
2021/12/23 18:40:06;;;;;;;41.40;19.40;;;;;;;-1.50;100.00;99908.22;10585073;28;20294;-68
2021/12/23 18:45:11;;;;;;;38.20;19.70;;;;;;;-1.51;100.00;99881.03;10585348;28;20223;-65
2021/12/23 18:50:14;;;;;;;35.90;18.10;;;;;;;-1.44;100.00;99877.84;10584940;28;20215;-70
2021/12/23 18:55:18;;;;;;;44.70;20.80;;;;;;;-1.46;100.00;99864.22;10584508;28;20218;-69
2021/12/23 19:00:30;;;;;;;45.90;21.07;;;;;;;-1.43;100.00;99855.00;10583891;28;20229;-64
2021/12/23 19:05:36;;;;;;;48.97;20.00;;;;;;;-1.46;100.00;99842.19;10584053;28;20287;-67
2021/12/23 19:10:39;;;;;;;56.03;26.10;;;;;;;-1.43;100.00;99843.94;10572446;28;20234;-68
2021/12/23 19:15:44;;;;;;;36.67;18.83;;;;;;;-1.52;100.00;99829.28;10541452;28;20246;-68
2021/12/23 19:20:47;;;;;;;46.67;23.77;;;;;;;-1.46;100.00;99821.84;10541649;28;20668;-73
2021/12/23 19:25:50;;;;;;;40.37;19.70;;;;;;;-1.36;100.00;99810.22;10540905;28;20545;-67
2021/12/23 19:30:55;;;;;;;40.30;19.57;;;;;;;-1.43;100.00;99799.03;10540937;28;20230;-72
2021/12/23 19:35:59;;;;;;;40.37;18.30;;;;;;;-1.44;100.00;99792.22;10541078;28;20234;-65
2021/12/23 19:41:04;;;;;;;49.07;24.20;;;;;;;-1.42;100.00;99769.34;10540642;28;20766;-64
2021/12/23 19:46:09;;;;;;;41.23;19.80;;;;;;;-1.37;100.00;99763.59;10540296;28;20239;-65
2021/12/23 19:51:12;;;;;;;40.20;18.67;;;;;;;-1.36;100.00;99754.25;10540627;28;20211;-68
2021/12/23 19:56:15;;;;;;;40.67;20.70;;;;;;;-1.30;100.00;99740.03;10540315;28;20227;-67
2021/12/23 20:01:20;;;;;;;42.33;19.60;;;;;;;-1.33;100.00;99734.00;10540342;28;20215;-67
2021/12/23 20:06:23;;;;;;;42.37;19.43;;;;;;;-1.32;100.00;99730.59;10539734;28;20296;-65
2021/12/23 20:11:28;;;;;;;45.30;20.53;;;;;;;-1.29;100.00;99712.88;10556943;28;20211;-64
2021/12/23 20:16:33;;;;;;;36.17;18.37;;;;;;;-1.32;100.00;99711.13;10582463;28;20690;-66
2021/12/23 20:21:37;;;;;;;41.63;18.90;;;;;;;-1.28;100.00;99687.47;10583023;28;20298;-66
2021/12/23 20:26:41;;;;;;;42.20;18.73;;;;;;;-1.32;100.00;99680.59;10581165;28;20233;-66
2021/12/23 20:31:46;;;;;;;42.17;19.77;;;;;;;-1.25;100.00;99668.88;10581306;28;20228;-68
2021/12/23 20:36:49;;;;;;;40.63;19.77;;;;;;;-1.19;100.00;99666.47;10581541;28;20225;-67
2021/12/23 20:41:53;;;;;;;39.53;18.27;;;;;;;-1.14;100.00;99653.88;10580898;28;20244;-64
2021/12/23 20:46:58;;;;;;;40.67;19.47;;;;;;;-1.11;100.00;99649.72;10580817;28;20557;-64
2021/12/23 20:52:05;;;;;;;40.20;19.73;;;;;;;-1.13;100.00;99635.22;10580953;28;20555;-67
2021/12/23 20:57:08;;;;;;;39.97;19.43;;;;;;;-1.13;100.00;99615.72;10580758;28;20309;-72
2021/12/23 21:02:14;;;;;;;38.77;19.17;;;;;;;-1.02;100.00;99609.22;10580669;28;20221;-64
2021/12/23 21:07:19;;;;;;;45.33;20.37;;;;;;;-0.96;100.00;99598.28;10580672;28;20226;-65
2021/12/23 21:12:22;;;;;;;41.10;20.53;;;;;;;-0.97;100.00;99586.41;10554784;28;20226;-69
2021/12/23 21:17:27;;;;;;;41.17;18.87;;;;;;;-0.90;100.00;99573.84;10538219;28;20224;-65
2021/12/23 21:22:31;;;;;;;39.57;19.03;;;;;;;-0.90;100.00;99576.41;10538841;28;20234;-66
2021/12/23 21:27:34;;;;;;;37.00;19.87;;;;;;;-0.83;100.00;99564.66;10545967;28;20315;-67
2021/12/23 21:32:39;;;;;;;44.70;18.43;;;;;;;-0.65;100.00;99547.19;10545644;28;20215;-67
2021/12/23 21:37:42;;;;;;;41.13;19.50;;;;;;;-0.65;100.00;99540.44;10545949;28;20220;-68
2021/12/23 21:42:46;;;;;;;43.97;20.33;;;;;;;-0.75;100.00;99518.16;10544884;28;20211;-67
2021/12/23 21:47:51;;;;;;;40.00;19.57;;;;;;;-0.72;100.00;99509.69;10544949;28;20221;-67
2021/12/23 21:52:54;;;;;;;42.50;19.23;;;;;;;-0.70;100.00;99498.72;10545116;28;20216;-69
2021/12/23 21:58:00;;;;;;;39.63;19.80;;;;;;;-0.68;100.00;99483.47;10544827;28;20221;-66
2021/12/23 22:03:06;;;;;;;43.30;18.57;;;;;;;-0.73;100.00;99480.84;10545211;28;20296;-66
2021/12/23 22:08:09;;;;;;;45.20;21.00;;;;;;;-0.73;100.00;99459.59;10544551;28;20223;-69
2021/12/23 22:13:14;;;;;;;46.70;20.87;;;;;;;-0.77;100.00;99447.63;10577204;28;20218;-66
2021/12/23 22:18:18;;;;;;;49.60;19.60;;;;;;;-0.78;100.00;99434.03;10587185;28;20233;-73
2021/12/23 22:23:21;;;;;;;38.53;19.27;;;;;;;-0.69;100.00;99423.16;10557997;28;20216;-67
2021/12/23 22:28:25;;;;;;;43.80;19.17;;;;;;;-0.73;100.00;99401.00;10545403;28;20219;-70
2021/12/23 22:33:29;;;;;;;38.63;19.17;;;;;;;-0.77;100.00;99402.63;10545985;28;20215;-69
2021/12/23 22:38:33;;;;;;;44.20;19.60;;;;;;;-0.80;100.00;99382.22;10545769;28;20533;-69
2021/12/23 22:43:36;;;;;;;42.57;21.13;;;;;;;-0.84;100.00;99380.44;10546375;28;20233;-71
2021/12/23 22:48:41;;;;;;;42.47;22.70;;;;;;;-0.93;100.00;99369.22;10545736;28;20656;-69
2021/12/23 22:53:44;;;;;;;40.77;21.53;;;;;;;-0.94;100.00;99357.31;10545217;28;20227;-66
2021/12/23 22:58:48;;;;;;;43.50;21.23;;;;;;;-1.01;100.00;99347.81;10544253;28;20211;-65
2021/12/23 23:03:53;;;;;;;41.63;20.60;;;;;;;-1.06;100.00;99332.47;10544419;28;20245;-66
2021/12/23 23:08:56;;;;;;;44.80;23.27;;;;;;;-1.11;100.00;99317.94;10544964;28;20219;-65
2021/12/23 23:14:20;;;;;;;46.43;21.80;;;;;;;-1.15;100.00;99294.13;10544717;28;20270;-69
2021/12/23 23:19:28;;;;;;;42.77;22.93;;;;;;;-1.20;100.00;99298.25;10544958;28;20645;-64
2021/12/23 23:24:37;;;;;;;45.13;23.27;;;;;;;-1.23;100.00;99277.84;10544258;28;20229;-67
2021/12/23 23:35:20;;;;;;;44.00;23.43;;;;;;;-1.27;100.00;99271.84;10544309;28;20223;-65
2021/12/23 23:40:31;;;;;;;45.10;22.83;;;;;;;-1.31;100.00;99261.56;10544401;28;20221;-68
2021/12/23 23:45:36;;;;;;;46.67;23.43;;;;;;;-1.29;100.00;99253.16;10543590;28;20252;-64
2021/12/23 23:50:44;;;;;;;48.43;23.97;;;;;;;-1.28;100.00;99256.56;10543411;28;20222;-65
2021/12/23 23:55:54;;;;;;;44.73;23.10;;;;;;;-1.28;100.00;99254.00;10543359;28;20211;-67
